createdAt,value
2022-10-11T00:01:19.047Z,12.47
2022-10-11T00:03:45.613Z,12.43
2022-10-11T00:06:12.245Z,12.63
2022-10-11T00:08:38.810Z,14.87
2022-10-11T00:11:07.617Z,12.70
2022-10-11T00:13:34.723Z,12.77
2022-10-11T00:16:01.575Z,12.83
2022-10-11T00:18:28.251Z,12.17
2022-10-11T00:21:07.979Z,12.93
2022-10-11T00:23:35.226Z,13.50
2022-10-11T00:26:04.897Z,13.27
2022-10-11T00:28:31.906Z,13.07
2022-10-11T00:30:58.557Z,12.47
2022-10-11T00:33:25.225Z,13.40
2022-10-11T00:35:51.814Z,13.07
2022-10-11T00:38:18.514Z,13.87
2022-10-11T00:40:45.715Z,12.87
2022-10-11T00:43:17.240Z,12.80
2022-10-11T00:46:00.395Z,12.53
2022-10-11T00:48:40.392Z,12.83
2022-10-11T00:51:19.489Z,12.90
2022-10-11T00:53:47.912Z,14.30
2022-10-11T00:56:22.470Z,13.60
2022-10-11T00:58:49.809Z,13.20
2022-10-11T01:01:16.449Z,13.20
2022-10-11T01:03:44.293Z,13.60
2022-10-11T01:06:10.971Z,13.37
2022-10-11T01:08:38.185Z,12.90
2022-10-11T01:11:05.267Z,13.50
2022-10-11T01:13:39.093Z,13.27
2022-10-11T01:16:17.917Z,12.97
2022-10-11T01:18:44.440Z,13.63
2022-10-11T01:21:10.967Z,12.40
2022-10-11T01:24:16.209Z,12.63
2022-10-11T01:26:51.798Z,12.23
2022-10-11T01:29:55.914Z,13.00
2022-10-11T01:32:28.641Z,12.07
2022-10-11T01:35:24.143Z,13.30
2022-10-11T01:38:01.889Z,11.83
2022-10-11T01:40:35.217Z,13.43
2022-10-11T01:43:02.081Z,12.60
2022-10-11T01:45:29.090Z,12.33
2022-10-11T01:48:03.205Z,12.27
2022-10-11T01:50:40.929Z,11.73
2022-10-11T01:53:21.522Z,12.83
2022-10-11T01:55:57.365Z,12.13
2022-10-11T01:58:52.946Z,12.73
2022-10-11T02:01:40.957Z,12.57
2022-10-11T02:04:17.077Z,12.73
2022-10-11T02:07:15.107Z,13.20
2022-10-11T02:09:53.729Z,12.37
2022-10-11T02:12:28.049Z,12.80
2022-10-11T02:14:56.493Z,12.63
2022-10-11T02:17:27.615Z,12.83
2022-10-11T02:19:57.209Z,13.27
2022-10-11T02:22:28.151Z,12.97
2022-10-11T02:24:56.909Z,11.90
2022-10-11T02:27:26.793Z,11.03
2022-10-11T02:29:54.749Z,12.27
2022-10-11T02:32:23.692Z,12.37
2022-10-11T02:34:58.446Z,12.53
2022-10-11T02:37:32.926Z,12.03
2022-10-11T02:40:03.989Z,12.60
2022-10-11T02:42:34.013Z,12.60
2022-10-11T02:45:04.733Z,13.93
2022-10-11T02:47:32.129Z,12.67
2022-10-11T02:49:59.757Z,13.13
2022-10-11T02:52:26.768Z,13.67
2022-10-11T02:54:53.337Z,12.73
2022-10-11T02:57:19.909Z,12.23
2022-10-11T02:59:46.434Z,11.53
2022-10-11T03:02:13.126Z,12.87
2022-10-11T03:04:39.653Z,12.87
2022-10-11T03:07:06.196Z,11.90
2022-10-11T03:09:32.751Z,11.77
2022-10-11T03:11:59.282Z,12.07
2022-10-11T03:14:26.911Z,12.43
2022-10-11T03:16:53.466Z,12.70
2022-10-11T03:19:20.037Z,12.73
2022-10-11T03:21:46.808Z,12.43
2022-10-11T03:24:13.433Z,13.20
2022-10-11T03:26:39.997Z,12.37
2022-10-11T03:29:06.518Z,11.67
2022-10-11T03:31:33.053Z,12.63
2022-10-11T03:33:59.590Z,12.47
2022-10-11T03:36:26.104Z,12.57
2022-10-11T03:38:52.710Z,12.87
2022-10-11T03:41:19.242Z,12.50
2022-10-11T03:43:45.780Z,13.77
2022-10-11T03:46:12.406Z,12.00
2022-10-11T03:48:38.991Z,12.90
2022-10-11T03:51:05.669Z,14.43
2022-10-11T03:53:32.209Z,12.13
2022-10-11T03:55:58.726Z,13.57
2022-10-11T03:58:25.315Z,12.60
2022-10-11T04:00:52.769Z,12.53
2022-10-11T04:03:19.403Z,12.30
2022-10-11T04:05:45.926Z,12.90
2022-10-11T04:08:12.590Z,12.67
2022-10-11T04:10:40.074Z,12.17
2022-10-11T04:13:07.387Z,13.13
2022-10-11T04:15:33.991Z,13.53
2022-10-11T04:18:00.563Z,13.37
2022-10-11T04:20:27.116Z,12.57
2022-10-11T04:22:53.657Z,12.57
2022-10-11T04:25:20.206Z,12.87
2022-10-11T04:27:46.739Z,13.00
2022-10-11T04:30:13.623Z,13.00
2022-10-11T04:32:40.181Z,16.83
2022-10-11T04:35:06.962Z,14.57
2022-10-11T04:37:33.490Z,16.30
2022-10-11T04:40:00.132Z,14.67
2022-10-11T04:42:26.678Z,15.90
2022-10-11T04:44:53.197Z,16.07
2022-10-11T04:47:19.736Z,16.80
2022-10-11T04:49:46.258Z,16.43
2022-10-11T04:52:12.848Z,16.50
2022-10-11T04:54:39.438Z,17.40
2022-10-11T04:57:06.072Z,15.13
2022-10-11T04:59:32.634Z,14.63
2022-10-11T05:01:59.204Z,16.13
2022-10-11T05:04:25.794Z,14.20
2022-10-11T05:06:52.369Z,13.43
2022-10-11T05:09:19.174Z,15.07
2022-10-11T05:11:45.734Z,14.37
2022-10-11T05:14:12.254Z,14.87
2022-10-11T05:16:38.798Z,23.40
2022-10-11T05:19:05.400Z,22.57
2022-10-11T05:21:32.070Z,14.50
2022-10-11T05:23:58.643Z,14.43
2022-10-11T05:26:27.392Z,16.03
2022-10-11T05:28:55.109Z,16.00
2022-10-11T05:31:21.846Z,14.40
2022-10-11T05:33:48.482Z,14.87
2022-10-11T05:36:15.216Z,14.90
2022-10-11T05:38:41.833Z,14.47
2022-10-11T05:41:11.665Z,14.47
2022-10-11T05:43:38.179Z,15.67
2022-10-11T05:46:05.941Z,13.90
2022-10-11T05:48:32.719Z,16.63
2022-10-11T05:51:05.237Z,16.80
2022-10-11T05:53:32.490Z,14.90
2022-10-11T05:55:59.652Z,15.77
2022-10-11T05:58:26.472Z,16.00
2022-10-11T06:00:53.388Z,16.13
2022-10-11T06:03:21.119Z,15.70
2022-10-11T06:05:47.851Z,15.77
2022-10-11T06:08:14.916Z,18.57
2022-10-11T06:10:41.872Z,17.03
2022-10-11T06:13:09.633Z,16.87
2022-10-11T06:15:38.986Z,16.13
2022-10-11T06:18:05.622Z,15.60
2022-10-11T06:20:32.280Z,15.10
2022-10-11T06:22:59.190Z,15.63
2022-10-11T06:25:25.764Z,16.17
2022-10-11T06:27:52.350Z,16.93
2022-10-11T06:30:19.018Z,16.47
2022-10-11T06:32:45.610Z,20.40
2022-10-11T06:35:12.306Z,15.93
2022-10-11T06:37:38.890Z,15.47
2022-10-11T06:40:06.007Z,15.40
2022-10-11T06:42:32.623Z,14.03
2022-10-11T06:44:59.253Z,13.77
2022-10-11T06:47:25.914Z,14.40
2022-10-11T06:49:52.580Z,15.77
2022-10-11T06:52:19.399Z,14.53
2022-10-11T06:54:46.009Z,14.53
2022-10-11T06:57:12.698Z,16.33
2022-10-11T06:59:39.372Z,15.33
2022-10-11T07:02:06.933Z,14.20
2022-10-11T07:04:33.986Z,15.03
2022-10-11T07:07:00.883Z,13.60
2022-10-11T07:09:27.515Z,13.30
2022-10-11T07:11:54.078Z,14.37
2022-10-11T07:14:20.694Z,16.30
2022-10-11T07:16:47.302Z,13.47
2022-10-11T07:19:13.958Z,13.67
2022-10-11T07:21:40.645Z,12.83
2022-10-11T07:24:07.513Z,13.30
2022-10-11T07:26:38.603Z,12.00
2022-10-11T07:29:07.614Z,14.80
2022-10-11T07:31:34.207Z,12.70
2022-10-11T07:34:00.931Z,12.60
2022-10-11T07:36:27.643Z,13.03
2022-10-11T07:38:55.340Z,13.50
2022-10-11T07:41:22.022Z,13.63
2022-10-11T07:43:49.791Z,13.10
2022-10-11T07:46:17.406Z,13.13
2022-10-11T07:48:44.060Z,13.33
2022-10-11T07:51:12.104Z,12.63
2022-10-11T07:53:43.144Z,13.43
2022-10-11T07:56:12.541Z,13.47
2022-10-11T07:58:40.224Z,12.37
2022-10-11T08:01:07.499Z,13.43
2022-10-11T08:03:34.146Z,12.93
2022-10-11T08:06:06.158Z,13.03
2022-10-11T08:08:33.134Z,15.40
2022-10-11T08:10:59.851Z,11.73
2022-10-11T08:13:27.125Z,12.37
2022-10-11T08:15:53.984Z,13.03
2022-10-11T08:18:20.677Z,12.63
2022-10-11T08:20:47.446Z,13.00
2022-10-11T08:23:14.101Z,13.80
2022-10-11T08:25:44.578Z,12.87
2022-10-11T08:28:16.597Z,12.47
2022-10-11T08:30:50.756Z,14.27
2022-10-11T08:33:18.510Z,13.40
2022-10-11T08:35:45.186Z,12.53
2022-10-11T08:38:11.930Z,13.50
2022-10-11T08:40:38.932Z,14.87
2022-10-11T08:43:32.126Z,12.43
2022-10-11T08:46:01.173Z,14.00
2022-10-11T08:48:46.359Z,12.37
2022-10-11T08:51:30.670Z,14.07
2022-10-11T08:54:38.833Z,15.13
2022-10-11T08:57:06.550Z,17.97
2022-10-11T08:59:41.766Z,13.10
2022-10-11T09:02:35.137Z,11.57
2022-10-11T09:05:18.110Z,12.93
2022-10-11T09:08:06.194Z,12.67
2022-10-11T09:11:05.589Z,13.27
2022-10-11T09:13:53.430Z,11.93
2022-10-11T09:16:35.023Z,12.93
2022-10-11T09:19:16.813Z,13.53
2022-10-11T09:21:51.542Z,12.80
2022-10-11T09:24:47.365Z,19.10
2022-10-11T09:27:29.130Z,12.07
2022-10-11T09:30:17.261Z,13.87
2022-10-11T09:32:46.792Z,14.20
2022-10-11T09:35:22.511Z,14.00
2022-10-11T09:38:05.500Z,13.27
2022-10-11T09:40:43.446Z,13.17
2022-10-11T09:43:10.580Z,10.33
2022-10-11T09:45:37.342Z,10.67
2022-10-11T09:48:05.899Z,13.07
2022-10-11T09:50:32.990Z,12.90
2022-10-11T09:53:03.573Z,11.17
2022-10-11T09:55:52.494Z,10.50
2022-10-11T09:58:35.983Z,11.73
2022-10-11T10:01:07.875Z,12.63
2022-10-11T10:03:40.625Z,11.97
2022-10-11T10:06:25.296Z,11.43
2022-10-11T10:08:52.187Z,11.33
2022-10-11T10:11:19.412Z,12.30
2022-10-11T10:13:47.155Z,11.73
2022-10-11T10:16:31.574Z,10.67
2022-10-11T10:19:03.522Z,10.30
2022-10-11T10:21:36.654Z,14.07
2022-10-11T10:24:12.012Z,16.07
2022-10-11T10:26:39.989Z,11.77
2022-10-11T10:29:09.532Z,9.57
2022-10-11T10:31:55.273Z,11.57
2022-10-11T10:34:28.772Z,7.90
2022-10-11T10:37:11.822Z,10.03
2022-10-11T10:39:57.288Z,11.50
2022-10-11T10:42:23.963Z,9.67
2022-10-11T10:44:53.356Z,8.93
2022-10-11T10:47:28.714Z,9.23
2022-10-11T10:50:08.404Z,7.63
2022-10-11T10:52:48.713Z,9.20
2022-10-11T10:55:30.508Z,8.93
2022-10-11T10:58:22.032Z,8.53
2022-10-11T11:00:51.022Z,9.67
2022-10-11T11:03:42.672Z,7.97
2022-10-11T11:06:21.788Z,10.10
2022-10-11T11:09:00.164Z,8.40
2022-10-11T11:11:33.502Z,8.03
2022-10-11T11:14:15.820Z,7.13
2022-10-11T11:16:57.912Z,8.50
2022-10-11T11:19:58.370Z,8.57
2022-10-11T11:22:50.002Z,12.03
2022-10-11T11:25:44.980Z,7.53
2022-10-11T11:28:30.314Z,9.40
2022-10-11T11:31:26.486Z,8.33
2022-10-11T11:34:10.731Z,10.17
2022-10-11T11:37:06.931Z,12.37
2022-10-11T11:40:07.134Z,6.60
2022-10-11T11:42:40.947Z,7.87
2022-10-11T11:45:28.102Z,9.80
2022-10-11T11:48:07.066Z,7.37
2022-10-11T11:50:40.011Z,8.30
2022-10-11T11:53:13.790Z,6.97
2022-10-11T11:55:49.391Z,6.43
2022-10-11T11:58:31.088Z,5.73
2022-10-11T12:01:21.532Z,8.80
2022-10-11T12:03:50.756Z,9.33
2022-10-11T12:06:21.122Z,6.93
2022-10-11T12:09:15.454Z,6.87
2022-10-11T12:12:00.031Z,7.17
2022-10-11T12:14:35.657Z,7.20
2022-10-11T12:17:23.755Z,7.63
2022-10-11T12:20:08.624Z,5.90
2022-10-11T12:22:35.183Z,9.17
2022-10-11T12:25:22.015Z,8.83
2022-10-11T12:27:53.946Z,4.80
2022-10-11T12:30:48.175Z,6.03
2022-10-11T12:33:24.550Z,8.10
2022-10-11T12:35:54.245Z,7.40
2022-10-11T12:38:31.390Z,4.40
2022-10-11T12:41:08.637Z,7.20
2022-10-11T12:44:07.653Z,7.40
2022-10-11T12:46:41.485Z,5.47
2022-10-11T12:49:23.993Z,4.70
2022-10-11T12:52:06.977Z,4.13
2022-10-11T12:55:04.648Z,5.50
2022-10-11T12:58:01.256Z,7.03
2022-10-11T13:00:31.121Z,8.20
2022-10-11T13:02:59.743Z,5.80
2022-10-11T13:05:27.704Z,4.30
2022-10-11T13:07:56.034Z,7.13
2022-10-11T13:10:36.917Z,5.23
2022-10-11T13:13:09.978Z,5.13
2022-10-11T13:15:36.565Z,8.90
2022-10-11T13:18:03.183Z,6.13
2022-10-11T13:20:32.220Z,6.97
2022-10-11T13:22:58.910Z,6.77
2022-10-11T13:25:29.407Z,8.17
2022-10-11T13:27:58.518Z,6.60
2022-10-11T13:30:28.873Z,5.20
2022-10-11T13:32:55.632Z,7.10
2022-10-11T13:35:38.388Z,7.27
2022-10-11T13:38:08.133Z,4.67
2022-10-11T13:40:35.709Z,9.03
2022-10-11T13:43:02.583Z,4.87
2022-10-11T13:45:32.268Z,6.07
2022-10-11T13:47:58.963Z,5.93
2022-10-11T13:50:32.238Z,7.83
2022-10-11T13:53:02.287Z,4.97
2022-10-11T13:55:47.141Z,6.30
2022-10-11T13:58:20.699Z,4.80
2022-10-11T14:00:56.481Z,6.37
2022-10-11T14:03:24.820Z,6.93
2022-10-11T14:05:59.027Z,5.37
2022-10-11T14:08:25.712Z,5.90
2022-10-11T14:10:56.763Z,6.53
2022-10-11T14:13:25.823Z,6.97
2022-10-11T14:16:04.432Z,7.47
2022-10-11T14:18:36.905Z,8.30
2022-10-11T14:21:46.997Z,9.20
2022-10-11T14:24:14.593Z,5.47
2022-10-11T14:26:52.251Z,7.60
2022-10-11T14:29:35.089Z,9.10
2022-10-11T14:32:04.733Z,7.57
2022-10-11T14:34:31.589Z,7.60
2022-10-11T14:36:58.206Z,6.20
2022-10-11T14:39:26.297Z,6.33
2022-10-11T14:41:53.269Z,7.57
2022-10-11T14:44:21.097Z,11.20
2022-10-11T14:46:48.901Z,4.97
2022-10-11T14:49:25.250Z,5.57
2022-10-11T14:51:53.054Z,7.07
2022-10-11T14:54:22.645Z,8.13
2022-10-11T14:56:53.881Z,7.30
2022-10-11T14:59:22.602Z,9.77
2022-10-11T15:01:54.016Z,10.30
2022-10-11T15:04:21.729Z,6.47
2022-10-11T15:06:48.888Z,7.40
2022-10-11T15:09:17.078Z,8.33
2022-10-11T15:11:43.804Z,7.70
2022-10-11T15:14:10.464Z,7.73
2022-10-11T15:16:37.086Z,12.10
2022-10-11T15:19:03.908Z,8.70
2022-10-11T15:21:30.645Z,8.70
2022-10-11T15:23:57.218Z,9.03
2022-10-11T15:26:28.712Z,7.97
2022-10-11T15:28:56.989Z,7.80
2022-10-11T15:31:23.801Z,6.50
2022-10-11T15:33:50.455Z,6.57
2022-10-11T15:36:19.433Z,7.20
2022-10-11T15:38:46.479Z,7.67
2022-10-11T15:41:15.613Z,6.70
2022-10-11T15:43:43.809Z,6.77
2022-10-11T15:46:17.429Z,7.10
2022-10-11T15:48:45.067Z,6.17
2022-10-11T15:51:11.713Z,10.43
2022-10-11T15:53:38.353Z,6.80
2022-10-11T15:56:07.810Z,12.37
2022-10-11T15:58:36.878Z,9.77
2022-10-11T16:01:06.799Z,8.67
2022-10-11T16:03:34.089Z,10.27
2022-10-11T16:06:04.816Z,8.23
2022-10-11T16:08:33.659Z,13.27
2022-10-11T16:11:00.823Z,7.87
2022-10-11T16:13:27.446Z,9.40
2022-10-11T16:15:54.089Z,5.67
2022-10-11T16:18:22.158Z,10.17
2022-10-11T16:20:51.346Z,7.43
2022-10-11T16:23:19.814Z,10.03
2022-10-11T16:25:46.473Z,9.53
2022-10-11T16:28:13.119Z,8.10
2022-10-11T16:30:43.135Z,8.60
2022-10-11T16:33:09.993Z,8.03
2022-10-11T16:35:40.511Z,6.17
2022-10-11T16:38:07.093Z,6.33
2022-10-11T16:40:35.740Z,8.30
2022-10-11T16:43:07.349Z,13.80
2022-10-11T16:45:35.032Z,11.57
2022-10-11T16:48:02.018Z,11.60
2022-10-11T16:50:29.107Z,10.50
2022-10-11T16:52:55.898Z,10.37
2022-10-11T16:55:23.085Z,9.83
2022-10-11T16:57:49.634Z,8.13
2022-10-11T17:00:16.563Z,9.97
2022-10-11T17:02:43.129Z,11.50
2022-10-11T17:05:09.656Z,12.37
2022-10-11T17:07:36.270Z,9.27
2022-10-11T17:10:02.915Z,10.80
2022-10-11T17:12:29.771Z,13.90
2022-10-11T17:14:56.546Z,10.73
2022-10-11T17:17:23.253Z,10.50
2022-10-11T17:19:50.148Z,14.63
2022-10-11T17:22:19.266Z,12.37
2022-10-11T17:24:46.216Z,10.60
2022-10-11T17:27:13.142Z,10.50
2022-10-11T17:29:39.771Z,11.57
2022-10-11T17:32:06.728Z,8.90
2022-10-11T17:34:33.647Z,10.53
2022-10-11T17:37:00.205Z,10.00
2022-10-11T17:39:26.811Z,10.60
2022-10-11T17:41:53.417Z,9.13
2022-10-11T17:44:21.621Z,10.23
2022-10-11T17:46:48.309Z,7.67
2022-10-11T17:49:15.035Z,7.27
2022-10-11T17:51:42.003Z,8.83
2022-10-11T17:54:12.790Z,9.03
2022-10-11T17:56:40.949Z,11.80
2022-10-11T17:59:08.820Z,12.33
2022-10-11T18:01:36.114Z,11.30
2022-10-11T18:04:04.272Z,9.90
2022-10-11T18:06:33.067Z,9.97
2022-10-11T18:09:01.265Z,12.50
2022-10-11T18:11:27.935Z,8.87
2022-10-11T18:13:54.592Z,9.77
2022-10-11T18:16:23.263Z,8.73
2022-10-11T18:18:50.216Z,8.27
2022-10-11T18:21:18.703Z,7.00
2022-10-11T18:23:45.620Z,6.60
2022-10-11T18:26:20.166Z,10.83
2022-10-11T18:28:47.861Z,7.83
2022-10-11T18:31:17.475Z,8.87
2022-10-11T18:33:45.979Z,8.30
2022-10-11T18:36:14.521Z,8.33
2022-10-11T18:38:46.126Z,8.50
2022-10-11T18:41:14.647Z,9.73
2022-10-11T18:43:41.361Z,6.87
2022-10-11T18:46:10.621Z,6.83
2022-10-11T18:48:43.113Z,8.37
2022-10-11T18:51:12.722Z,8.20
2022-10-11T18:53:39.307Z,9.60
2022-10-11T18:56:08.010Z,10.80
2022-10-11T18:58:35.982Z,8.47
2022-10-11T19:01:20.545Z,9.07
2022-10-11T19:03:49.435Z,8.70
2022-10-11T19:06:18.589Z,13.10
2022-10-11T19:08:55.942Z,11.57
2022-10-11T19:11:25.212Z,11.47
2022-10-11T19:13:59.818Z,12.43
2022-10-11T19:16:27.990Z,9.03
2022-10-11T19:18:54.565Z,11.23
2022-10-11T19:21:21.719Z,8.63
2022-10-11T19:23:49.220Z,7.20
2022-10-11T19:26:24.305Z,8.50
2022-10-11T19:29:05.263Z,9.43
2022-10-11T19:31:33.241Z,10.37
2022-10-11T19:33:59.947Z,8.90
2022-10-11T19:36:28.401Z,7.67
2022-10-11T19:38:56.887Z,9.20
2022-10-11T19:41:24.555Z,9.10
2022-10-11T19:43:51.587Z,7.93
2022-10-11T19:46:37.820Z,9.77
2022-10-11T19:49:08.107Z,9.20
2022-10-11T19:51:35.195Z,8.97
2022-10-11T19:54:04.895Z,8.97
2022-10-11T19:56:32.646Z,10.13
2022-10-11T19:58:59.878Z,8.90
2022-10-11T20:01:29.192Z,10.90
2022-10-11T20:03:57.826Z,11.57
2022-10-11T20:06:25.830Z,10.20
2022-10-11T20:09:10.398Z,9.87
2022-10-11T20:11:39.192Z,12.00
2022-10-11T20:14:06.103Z,11.77
2022-10-11T20:16:32.726Z,12.37
2022-10-11T20:18:59.412Z,18.20
2022-10-11T20:21:27.939Z,17.97
2022-10-11T20:23:58.722Z,33.40
2022-10-11T20:26:26.802Z,42.53
2022-10-11T20:28:56.028Z,40.43
2022-10-11T20:31:28.542Z,29.60
2022-10-11T20:33:57.347Z,39.67
2022-10-11T20:36:26.013Z,40.70
2022-10-11T20:38:52.682Z,39.70
2022-10-11T20:41:22.224Z,41.07
2022-10-11T20:43:52.086Z,42.07
2022-10-11T20:46:21.390Z,38.47
2022-10-11T20:48:58.894Z,34.27
2022-10-11T20:51:28.822Z,26.60
2022-10-11T20:53:56.393Z,19.33
2022-10-11T20:56:23.293Z,16.50
2022-10-11T20:58:54.254Z,20.20
2022-10-11T21:01:23.262Z,19.20
2022-10-11T21:03:50.447Z,16.70
2022-10-11T21:06:17.026Z,14.47
2022-10-11T21:08:43.654Z,11.57
2022-10-11T21:11:10.985Z,16.30
2022-10-11T21:13:38.191Z,12.83
2022-10-11T21:16:11.183Z,13.67
2022-10-11T21:18:38.135Z,12.40
2022-10-11T21:21:06.777Z,13.87
2022-10-11T21:23:33.648Z,12.20
2022-10-11T21:26:04.930Z,12.20
2022-10-11T21:28:31.719Z,11.93
2022-10-11T21:31:05.112Z,11.97
2022-10-11T21:33:31.806Z,10.43
2022-10-11T21:35:58.407Z,12.73
2022-10-11T21:38:25.013Z,11.83
2022-10-11T21:40:51.898Z,13.07
2022-10-11T21:43:18.516Z,12.10
2022-10-11T21:45:45.866Z,12.50
2022-10-11T21:48:12.573Z,11.83
2022-10-11T21:50:39.332Z,16.13
2022-10-11T21:53:05.982Z,15.57
2022-10-11T21:55:32.561Z,15.40
2022-10-11T21:57:59.415Z,12.43
2022-10-11T22:00:25.958Z,10.40
2022-10-11T22:02:52.615Z,11.13
2022-10-11T22:05:19.221Z,11.13
2022-10-11T22:07:45.786Z,11.50
2022-10-11T22:10:12.393Z,13.57
2022-10-11T22:12:38.939Z,11.03
2022-10-11T22:15:06.076Z,11.27
2022-10-11T22:17:32.665Z,11.07
2022-10-11T22:19:59.250Z,12.17
2022-10-11T22:22:26.228Z,13.73
2022-10-11T22:24:52.797Z,12.23
2022-10-11T22:27:19.436Z,12.53
2022-10-11T22:29:45.995Z,12.33
2022-10-11T22:32:12.582Z,13.47
2022-10-11T22:34:39.142Z,13.30
2022-10-11T22:37:05.689Z,14.60
2022-10-11T22:39:32.245Z,17.07
2022-10-11T22:41:59.122Z,16.47
2022-10-11T22:44:25.701Z,16.60
2022-10-11T22:46:52.272Z,14.83
2022-10-11T22:49:18.850Z,15.90
2022-10-11T22:51:45.473Z,14.83
2022-10-11T22:54:12.155Z,15.03
2022-10-11T22:56:38.747Z,16.47
2022-10-11T22:59:05.383Z,15.47
2022-10-11T23:01:32.140Z,16.07
2022-10-11T23:03:58.768Z,15.57
2022-10-11T23:06:25.391Z,14.80
2022-10-11T23:08:51.951Z,16.17
2022-10-11T23:11:18.542Z,15.00
2022-10-11T23:13:45.081Z,15.30
2022-10-11T23:16:13.075Z,15.97
2022-10-11T23:18:40.045Z,14.80
2022-10-11T23:21:07.488Z,14.43
2022-10-11T23:23:34.244Z,14.70
2022-10-11T23:26:05.460Z,13.83
2022-10-11T23:28:32.202Z,14.77
2022-10-11T23:30:58.872Z,15.30
2022-10-11T23:33:25.542Z,14.27
2022-10-11T23:35:52.137Z,14.83
2022-10-11T23:38:18.711Z,15.33
2022-10-11T23:40:45.253Z,14.10
2022-10-11T23:43:11.800Z,15.50
2022-10-11T23:45:38.651Z,14.67
2022-10-11T23:48:05.205Z,14.53
2022-10-11T23:50:31.714Z,14.20
2022-10-11T23:52:58.269Z,14.53
2022-10-11T23:55:24.861Z,14.33
2022-10-11T23:57:51.457Z,13.97
